sensor_id;sensor_type;location;lat;lon;timestamp;pressure;altitude;pressure_sealevel;temperature;humidity
71126;BME280;58785;55.566;38.058;2022-07-29T00:02:12;100272.44;;;19.01;73.70
71126;BME280;58785;55.566;38.058;2022-07-29T00:04:37;100263.28;;;19.02;73.66
71126;BME280;58785;55.566;38.058;2022-07-29T00:07:04;100271.41;;;19.02;73.60
71126;BME280;58785;55.566;38.058;2022-07-29T00:09:30;100267.22;;;19.00;73.86
71126;BME280;58785;55.566;38.058;2022-07-29T00:11:59;100249.97;;;19.01;73.67
71126;BME280;58785;55.566;38.058;2022-07-29T00:14:25;100267.06;;;19.08;73.34
71126;BME280;58785;55.566;38.058;2022-07-29T00:16:51;100266.88;;;19.09;73.12
71126;BME280;58785;55.566;38.058;2022-07-29T00:19:17;100263.34;;;19.09;73.12
71126;BME280;58785;55.566;38.058;2022-07-29T00:21:42;100266.66;;;19.11;72.77
71126;BME280;58785;55.566;38.058;2022-07-29T00:24:08;100274.56;;;19.12;72.75
71126;BME280;58785;55.566;38.058;2022-07-29T00:26:34;100265.44;;;19.13;72.33
71126;BME280;58785;55.566;38.058;2022-07-29T00:29:00;100274.19;;;19.15;72.37
71126;BME280;58785;55.566;38.058;2022-07-29T00:31:26;100259.19;;;19.13;72.34
71126;BME280;58785;55.566;38.058;2022-07-29T00:33:52;100266.09;;;19.22;71.86
71126;BME280;58785;55.566;38.058;2022-07-29T00:36:18;100274.66;;;19.26;71.88
71126;BME280;58785;55.566;38.058;2022-07-29T00:38:47;100270.09;;;19.26;71.74
71126;BME280;58785;55.566;38.058;2022-07-29T00:41:12;100275.09;;;19.29;71.48
71126;BME280;58785;55.566;38.058;2022-07-29T00:43:38;100268.22;;;19.27;71.62
71126;BME280;58785;55.566;38.058;2022-07-29T00:46:03;100277.13;;;19.20;71.48
71126;BME280;58785;55.566;38.058;2022-07-29T00:48:29;100286.28;;;19.19;71.39
71126;BME280;58785;55.566;38.058;2022-07-29T00:50:56;100284.59;;;19.18;71.43
71126;BME280;58785;55.566;38.058;2022-07-29T00:53:23;100295.00;;;19.15;70.94
71126;BME280;58785;55.566;38.058;2022-07-29T00:55:50;100293.28;;;19.14;70.89
71126;BME280;58785;55.566;38.058;2022-07-29T00:58:16;100291.19;;;19.09;70.98
71126;BME280;58785;55.566;38.058;2022-07-29T01:00:42;100298.00;;;18.99;70.69
71126;BME280;58785;55.566;38.058;2022-07-29T01:03:08;100303.13;;;18.93;70.78
71126;BME280;58785;55.566;38.058;2022-07-29T01:05:35;100304.78;;;18.88;70.62
71126;BME280;58785;55.566;38.058;2022-07-29T01:08:01;100316.81;;;18.85;71.05
71126;BME280;58785;55.566;38.058;2022-07-29T01:10:27;100315.31;;;18.83;70.64
71126;BME280;58785;55.566;38.058;2022-07-29T01:12:57;100312.41;;;18.78;70.45
71126;BME280;58785;55.566;38.058;2022-07-29T01:15:24;100317.72;;;18.71;70.40
71126;BME280;58785;55.566;38.058;2022-07-29T01:23:48;100313.38;;;18.27;69.40
71126;BME280;58785;55.566;38.058;2022-07-29T01:26:34;100323.66;;;18.17;69.49
71126;BME280;58785;55.566;38.058;2022-07-29T01:29:17;100315.66;;;18.09;69.47
71126;BME280;58785;55.566;38.058;2022-07-29T01:34:18;100321.28;;;17.93;69.66
71126;BME280;58785;55.566;38.058;2022-07-29T01:36:50;100311.25;;;17.87;69.77
71126;BME280;58785;55.566;38.058;2022-07-29T01:39:32;100309.41;;;17.87;69.81
71126;BME280;58785;55.566;38.058;2022-07-29T01:42:27;100312.59;;;17.76;69.89
71126;BME280;58785;55.566;38.058;2022-07-29T01:45:12;100320.69;;;17.76;70.22
71126;BME280;58785;55.566;38.058;2022-07-29T01:50:18;100303.09;;;17.65;70.43
71126;BME280;58785;55.566;38.058;2022-07-29T01:52:56;100308.31;;;17.67;70.35
71126;BME280;58785;55.566;38.058;2022-07-29T01:55:25;100307.28;;;17.68;70.55
71126;BME280;58785;55.566;38.058;2022-07-29T01:57:53;100310.34;;;17.65;70.83
71126;BME280;58785;55.566;38.058;2022-07-29T02:00:20;100310.34;;;17.65;70.77
71126;BME280;58785;55.566;38.058;2022-07-29T02:02:47;100310.44;;;17.57;70.66
71126;BME280;58785;55.566;38.058;2022-07-29T02:05:15;100294.19;;;17.50;70.89
71126;BME280;58785;55.566;38.058;2022-07-29T02:07:44;100317.72;;;17.56;70.82
71126;BME280;58785;55.566;38.058;2022-07-29T02:10:12;100329.69;;;17.53;70.93
71126;BME280;58785;55.566;38.058;2022-07-29T02:12:39;100319.28;;;17.50;70.99
71126;BME280;58785;55.566;38.058;2022-07-29T02:15:28;100318.44;;;17.50;70.98
71126;BME280;58785;55.566;38.058;2022-07-29T02:18:08;100318.34;;;17.58;71.20
71126;BME280;58785;55.566;38.058;2022-07-29T02:20:35;100313.59;;;17.60;70.80
71126;BME280;58785;55.566;38.058;2022-07-29T02:23:03;100322.44;;;17.69;70.91
71126;BME280;58785;55.566;38.058;2022-07-29T02:25:30;100331.47;;;17.76;70.75
71126;BME280;58785;55.566;38.058;2022-07-29T02:27:58;100329.88;;;17.81;70.69
71126;BME280;58785;55.566;38.058;2022-07-29T02:30:26;100322.91;;;17.87;70.44
71126;BME280;58785;55.566;38.058;2022-07-29T02:32:53;100336.81;;;18.05;69.80
71126;BME280;58785;55.566;38.058;2022-07-29T02:35:20;100325.19;;;18.26;69.34
71126;BME280;58785;55.566;38.058;2022-07-29T02:37:47;100324.06;;;18.63;68.27
71126;BME280;58785;55.566;38.058;2022-07-29T02:40:34;100331.94;;;19.08;67.48
71126;BME280;58785;55.566;38.058;2022-07-29T02:43:02;100335.09;;;19.46;66.99
71126;BME280;58785;55.566;38.058;2022-07-29T02:45:29;100319.47;;;19.76;65.92
71126;BME280;58785;55.566;38.058;2022-07-29T02:47:57;100328.56;;;20.16;65.31
71126;BME280;58785;55.566;38.058;2022-07-29T02:50:34;100328.41;;;20.51;64.25
71126;BME280;58785;55.566;38.058;2022-07-29T02:53:13;100331.97;;;20.91;63.57
71126;BME280;58785;55.566;38.058;2022-07-29T02:58:24;100345.69;;;21.49;62.07
71126;BME280;58785;55.566;38.058;2022-07-29T03:00:55;100339.34;;;21.75;61.63
71126;BME280;58785;55.566;38.058;2022-07-29T03:03:22;100336.34;;;21.90;61.06
71126;BME280;58785;55.566;38.058;2022-07-29T03:05:55;100334.63;;;22.08;60.45
71126;BME280;58785;55.566;38.058;2022-07-29T03:08:22;100335.97;;;22.24;59.78
71126;BME280;58785;55.566;38.058;2022-07-29T03:10:50;100345.75;;;22.32;59.54
71126;BME280;58785;55.566;38.058;2022-07-29T03:13:16;100339.84;;;22.42;58.83
71126;BME280;58785;55.566;38.058;2022-07-29T03:15:44;100349.78;;;22.54;58.42
71126;BME280;58785;55.566;38.058;2022-07-29T03:18:10;100347.41;;;22.64;58.28
71126;BME280;58785;55.566;38.058;2022-07-29T03:20:39;100353.47;;;22.66;57.76
71126;BME280;58785;55.566;38.058;2022-07-29T03:23:06;100344.44;;;22.73;57.50
71126;BME280;58785;55.566;38.058;2022-07-29T03:25:31;100348.47;;;22.95;56.73
71126;BME280;58785;55.566;38.058;2022-07-29T03:27:57;100340.41;;;23.07;56.60
71126;BME280;58785;55.566;38.058;2022-07-29T03:30:23;100344.72;;;23.14;56.09
71126;BME280;58785;55.566;38.058;2022-07-29T03:32:52;100356.09;;;23.30;55.81
71126;BME280;58785;55.566;38.058;2022-07-29T03:35:18;100351.56;;;23.42;55.41
71126;BME280;58785;55.566;38.058;2022-07-29T03:37:44;100345.22;;;23.48;55.38
71126;BME280;58785;55.566;38.058;2022-07-29T03:40:13;100341.69;;;23.47;54.72
71126;BME280;58785;55.566;38.058;2022-07-29T03:42:40;100350.44;;;23.49;54.94
71126;BME280;58785;55.566;38.058;2022-07-29T03:45:12;100354.81;;;23.50;54.70
71126;BME280;58785;55.566;38.058;2022-07-29T03:47:42;100344.75;;;23.51;54.53
71126;BME280;58785;55.566;38.058;2022-07-29T03:50:14;100350.91;;;23.65;54.47
71126;BME280;58785;55.566;38.058;2022-07-29T03:52:40;100355.00;;;23.74;54.21
71126;BME280;58785;55.566;38.058;2022-07-29T03:55:07;100357.59;;;23.87;54.05
71126;BME280;58785;55.566;38.058;2022-07-29T03:57:34;100353.69;;;23.95;54.12
71126;BME280;58785;55.566;38.058;2022-07-29T04:00:01;100354.38;;;24.08;53.61
71126;BME280;58785;55.566;38.058;2022-07-29T04:02:29;100355.41;;;24.26;53.38
71126;BME280;58785;55.566;38.058;2022-07-29T04:04:55;100361.75;;;24.38;53.05
71126;BME280;58785;55.566;38.058;2022-07-29T04:07:21;100362.94;;;24.42;52.89
71126;BME280;58785;55.566;38.058;2022-07-29T04:09:47;100369.59;;;24.46;52.57
71126;BME280;58785;55.566;38.058;2022-07-29T04:12:12;100366.16;;;24.51;52.36
71126;BME280;58785;55.566;38.058;2022-07-29T04:14:38;100373.16;;;24.47;52.18
71126;BME280;58785;55.566;38.058;2022-07-29T04:17:04;100359.03;;;24.38;52.02
71126;BME280;58785;55.566;38.058;2022-07-29T04:19:31;100376.28;;;24.14;51.17
71126;BME280;58785;55.566;38.058;2022-07-29T04:21:57;100383.00;;;23.99;51.27
71126;BME280;58785;55.566;38.058;2022-07-29T04:24:23;100374.81;;;23.81;51.79
71126;BME280;58785;55.566;38.058;2022-07-29T04:26:48;100375.72;;;23.93;51.59
71126;BME280;58785;55.566;38.058;2022-07-29T04:29:14;100387.59;;;23.99;51.42
71126;BME280;58785;55.566;38.058;2022-07-29T04:31:43;100370.94;;;24.07;51.17
71126;BME280;58785;55.566;38.058;2022-07-29T04:34:10;100372.66;;;24.20;50.81
71126;BME280;58785;55.566;38.058;2022-07-29T04:36:35;100375.91;;;24.28;50.84
71126;BME280;58785;55.566;38.058;2022-07-29T04:39:01;100371.25;;;24.17;50.87
71126;BME280;58785;55.566;38.058;2022-07-29T04:41:27;100377.22;;;24.07;50.88
71126;BME280;58785;55.566;38.058;2022-07-29T04:43:53;100373.81;;;23.94;51.10
71126;BME280;58785;55.566;38.058;2022-07-29T04:46:19;100369.72;;;24.03;50.65
71126;BME280;58785;55.566;38.058;2022-07-29T04:48:45;100368.53;;;23.99;50.36
71126;BME280;58785;55.566;38.058;2022-07-29T04:51:12;100374.16;;;23.86;50.19
71126;BME280;58785;55.566;38.058;2022-07-29T04:53:37;100374.44;;;23.96;50.82
71126;BME280;58785;55.566;38.058;2022-07-29T04:56:03;100381.16;;;23.93;50.72
71126;BME280;58785;55.566;38.058;2022-07-29T04:58:29;100376.94;;;23.97;50.28
71126;BME280;58785;55.566;38.058;2022-07-29T05:00:55;100379.97;;;24.07;50.13
71126;BME280;58785;55.566;38.058;2022-07-29T05:03:20;100381.94;;;24.30;49.96
71126;BME280;58785;55.566;38.058;2022-07-29T05:05:46;100381.47;;;24.52;49.72
71126;BME280;58785;55.566;38.058;2022-07-29T05:08:11;100377.84;;;24.70;49.15
71126;BME280;58785;55.566;38.058;2022-07-29T05:10:37;100371.72;;;24.86;49.28
71126;BME280;58785;55.566;38.058;2022-07-29T05:13:05;100369.94;;;24.91;48.65
71126;BME280;58785;55.566;38.058;2022-07-29T05:15:32;100378.44;;;24.83;48.46
71126;BME280;58785;55.566;38.058;2022-07-29T05:17:58;100362.88;;;24.60;48.48
71126;BME280;58785;55.566;38.058;2022-07-29T05:20:23;100375.59;;;24.67;48.83
71126;BME280;58785;55.566;38.058;2022-07-29T05:22:57;100384.75;;;24.84;48.08
71126;BME280;58785;55.566;38.058;2022-07-29T05:25:28;100376.09;;;24.75;48.47
71126;BME280;58785;55.566;38.058;2022-07-29T05:27:54;100374.28;;;24.69;48.51
71126;BME280;58785;55.566;38.058;2022-07-29T05:30:20;100374.00;;;24.47;48.53
71126;BME280;58785;55.566;38.058;2022-07-29T05:32:46;100376.97;;;24.57;48.53
71126;BME280;58785;55.566;38.058;2022-07-29T05:35:13;100380.09;;;24.73;47.96
71126;BME280;58785;55.566;38.058;2022-07-29T05:37:39;100374.88;;;24.71;47.50
71126;BME280;58785;55.566;38.058;2022-07-29T05:40:05;100385.78;;;24.71;47.17
71126;BME280;58785;55.566;38.058;2022-07-29T05:42:30;100381.41;;;24.82;47.27
71126;BME280;58785;55.566;38.058;2022-07-29T05:44:56;100375.88;;;24.88;46.37
71126;BME280;58785;55.566;38.058;2022-07-29T05:47:22;100374.34;;;25.04;46.33
71126;BME280;58785;55.566;38.058;2022-07-29T05:49:48;100374.84;;;25.25;45.92
71126;BME280;58785;55.566;38.058;2022-07-29T05:52:14;100369.75;;;25.28;45.01
71126;BME280;58785;55.566;38.058;2022-07-29T05:54:42;100379.13;;;25.09;44.91
71126;BME280;58785;55.566;38.058;2022-07-29T05:57:15;100376.19;;;24.69;45.66
71126;BME280;58785;55.566;38.058;2022-07-29T05:59:40;100377.91;;;24.51;46.43
71126;BME280;58785;55.566;38.058;2022-07-29T06:02:06;100373.94;;;24.65;46.71
71126;BME280;58785;55.566;38.058;2022-07-29T06:04:32;100374.00;;;25.12;46.51
71126;BME280;58785;55.566;38.058;2022-07-29T06:06:58;100370.06;;;25.67;46.08
71126;BME280;58785;55.566;38.058;2022-07-29T06:09:24;100376.31;;;26.02;45.52
71126;BME280;58785;55.566;38.058;2022-07-29T06:11:49;100377.00;;;26.10;45.04
71126;BME280;58785;55.566;38.058;2022-07-29T06:14:15;100369.38;;;25.71;45.35
71126;BME280;58785;55.566;38.058;2022-07-29T06:16:43;100366.06;;;25.22;46.35
71126;BME280;58785;55.566;38.058;2022-07-29T06:19:09;100366.44;;;24.73;46.92
71126;BME280;58785;55.566;38.058;2022-07-29T06:21:35;100363.72;;;24.31;47.42
71126;BME280;58785;55.566;38.058;2022-07-29T06:24:00;100366.63;;;23.99;47.62
71126;BME280;58785;55.566;38.058;2022-07-29T06:26:26;100370.44;;;23.80;48.11
71126;BME280;58785;55.566;38.058;2022-07-29T06:28:52;100375.34;;;23.71;48.03
71126;BME280;58785;55.566;38.058;2022-07-29T06:31:17;100373.41;;;23.53;48.26
71126;BME280;58785;55.566;38.058;2022-07-29T06:33:43;100369.84;;;23.35;48.41
71126;BME280;58785;55.566;38.058;2022-07-29T06:36:08;100367.78;;;23.55;48.27
71126;BME280;58785;55.566;38.058;2022-07-29T06:38:34;100364.28;;;24.03;47.67
71126;BME280;58785;55.566;38.058;2022-07-29T06:41:00;100362.94;;;24.24;47.66
71126;BME280;58785;55.566;38.058;2022-07-29T06:43:39;100368.50;;;24.17;47.46
71126;BME280;58785;55.566;38.058;2022-07-29T06:46:11;100369.44;;;23.93;47.64
71126;BME280;58785;55.566;38.058;2022-07-29T06:48:38;100366.47;;;23.94;47.68
71126;BME280;58785;55.566;38.058;2022-07-29T06:51:07;100368.63;;;24.22;47.38
71126;BME280;58785;55.566;38.058;2022-07-29T06:53:33;100371.06;;;24.60;47.19
71126;BME280;58785;55.566;38.058;2022-07-29T06:56:00;100375.16;;;24.93;47.24
71126;BME280;58785;55.566;38.058;2022-07-29T06:58:27;100377.91;;;25.05;46.49
71126;BME280;58785;55.566;38.058;2022-07-29T07:00:53;100374.72;;;25.08;46.20
71126;BME280;58785;55.566;38.058;2022-07-29T07:03:19;100375.91;;;25.23;46.09
71126;BME280;58785;55.566;38.058;2022-07-29T07:05:46;100387.19;;;25.50;46.29
71126;BME280;58785;55.566;38.058;2022-07-29T07:08:12;100376.50;;;25.61;45.74
71126;BME280;58785;55.566;38.058;2022-07-29T07:10:39;100388.16;;;25.56;46.26
71126;BME280;58785;55.566;38.058;2022-07-29T07:13:05;100380.53;;;25.35;46.33
71126;BME280;58785;55.566;38.058;2022-07-29T07:15:31;100390.28;;;25.07;46.82
71126;BME280;58785;55.566;38.058;2022-07-29T07:17:56;100384.19;;;25.05;47.17
71126;BME280;58785;55.566;38.058;2022-07-29T07:20:23;100380.44;;;25.06;47.41
71126;BME280;58785;55.566;38.058;2022-07-29T07:22:49;100388.25;;;25.14;47.34
71126;BME280;58785;55.566;38.058;2022-07-29T07:25:15;100386.13;;;25.28;47.12
71126;BME280;58785;55.566;38.058;2022-07-29T07:27:43;100391.69;;;25.10;47.21
71126;BME280;58785;55.566;38.058;2022-07-29T07:30:09;100382.34;;;25.17;47.74
71126;BME280;58785;55.566;38.058;2022-07-29T07:32:35;100381.94;;;25.61;47.55
71126;BME280;58785;55.566;38.058;2022-07-29T07:35:05;100382.97;;;25.95;46.74
71126;BME280;58785;55.566;38.058;2022-07-29T07:37:31;100387.19;;;26.26;46.88
71126;BME280;58785;55.566;38.058;2022-07-29T07:39:57;100372.34;;;26.50;46.52
71126;BME280;58785;55.566;38.058;2022-07-29T07:42:23;100381.38;;;26.51;46.13
71126;BME280;58785;55.566;38.058;2022-07-29T07:44:49;100382.63;;;26.31;46.52
71126;BME280;58785;55.566;38.058;2022-07-29T07:47:15;100383.59;;;25.97;46.11
71126;BME280;58785;55.566;38.058;2022-07-29T07:49:46;100386.63;;;25.37;46.83
71126;BME280;58785;55.566;38.058;2022-07-29T07:52:12;100383.28;;;25.11;47.57
71126;BME280;58785;55.566;38.058;2022-07-29T07:54:37;100389.19;;;25.55;47.17
71126;BME280;58785;55.566;38.058;2022-07-29T07:57:03;100386.53;;;25.95;46.24
71126;BME280;58785;55.566;38.058;2022-07-29T07:59:29;100394.97;;;26.34;46.36
71126;BME280;58785;55.566;38.058;2022-07-29T08:01:54;100391.38;;;26.45;45.96
71126;BME280;58785;55.566;38.058;2022-07-29T08:04:20;100391.16;;;26.35;46.55
71126;BME280;58785;55.566;38.058;2022-07-29T08:06:45;100385.81;;;26.40;45.96
71126;BME280;58785;55.566;38.058;2022-07-29T08:09:11;100389.25;;;26.47;46.01
71126;BME280;58785;55.566;38.058;2022-07-29T08:11:37;100386.25;;;26.49;46.32
71126;BME280;58785;55.566;38.058;2022-07-29T08:14:03;100391.59;;;26.15;46.22
71126;BME280;58785;55.566;38.058;2022-07-29T08:16:28;100398.78;;;25.93;46.43
71126;BME280;58785;55.566;38.058;2022-07-29T08:18:54;100390.97;;;25.85;45.82
71126;BME280;58785;55.566;38.058;2022-07-29T08:21:23;100392.66;;;25.50;45.94
71126;BME280;58785;55.566;38.058;2022-07-29T08:23:49;100392.06;;;25.60;45.90
71126;BME280;58785;55.566;38.058;2022-07-29T08:26:18;100394.41;;;25.92;45.29
71126;BME280;58785;55.566;38.058;2022-07-29T08:28:45;100396.09;;;25.81;45.29
71126;BME280;58785;55.566;38.058;2022-07-29T08:31:14;100387.53;;;25.54;45.39
71126;BME280;58785;55.566;38.058;2022-07-29T08:33:40;100385.78;;;25.36;45.65
71126;BME280;58785;55.566;38.058;2022-07-29T08:36:06;100387.31;;;25.32;45.57
71126;BME280;58785;55.566;38.058;2022-07-29T08:38:33;100376.75;;;25.47;45.61
71126;BME280;58785;55.566;38.058;2022-07-29T08:41:00;100377.19;;;25.68;44.95
71126;BME280;58785;55.566;38.058;2022-07-29T08:43:27;100376.47;;;25.84;44.33
71126;BME280;58785;55.566;38.058;2022-07-29T08:45:53;100381.06;;;25.95;44.03
71126;BME280;58785;55.566;38.058;2022-07-29T08:48:20;100378.47;;;26.00;43.59
71126;BME280;58785;55.566;38.058;2022-07-29T08:50:47;100383.13;;;25.88;44.14
71126;BME280;58785;55.566;38.058;2022-07-29T08:53:15;100377.59;;;25.48;44.58
71126;BME280;58785;55.566;38.058;2022-07-29T08:55:46;100378.41;;;25.25;44.35
71126;BME280;58785;55.566;38.058;2022-07-29T08:58:15;100367.72;;;25.23;44.42
71126;BME280;58785;55.566;38.058;2022-07-29T09:00:46;100377.59;;;25.36;43.90
71126;BME280;58785;55.566;38.058;2022-07-29T09:03:16;100373.03;;;25.54;43.85
71126;BME280;58785;55.566;38.058;2022-07-29T09:05:44;100379.34;;;25.66;43.87
71126;BME280;58785;55.566;38.058;2022-07-29T09:08:11;100379.34;;;25.66;43.39
71126;BME280;58785;55.566;38.058;2022-07-29T09:10:40;100384.56;;;25.67;43.14
71126;BME280;58785;55.566;38.058;2022-07-29T09:13:05;100379.22;;;25.72;43.55
71126;BME280;58785;55.566;38.058;2022-07-29T09:15:31;100381.94;;;25.84;44.18
71126;BME280;58785;55.566;38.058;2022-07-29T09:17:57;100377.75;;;25.93;44.20
71126;BME280;58785;55.566;38.058;2022-07-29T09:20:25;100382.13;;;26.06;44.05
71126;BME280;58785;55.566;38.058;2022-07-29T09:22:53;100370.94;;;26.07;44.25
71126;BME280;58785;55.566;38.058;2022-07-29T09:25:36;100372.56;;;26.20;43.38
71126;BME280;58785;55.566;38.058;2022-07-29T09:28:09;100386.31;;;26.37;43.61
71126;BME280;58785;55.566;38.058;2022-07-29T09:30:49;100384.06;;;26.22;43.44
71126;BME280;58785;55.566;38.058;2022-07-29T09:33:15;100382.66;;;25.79;43.41
71126;BME280;58785;55.566;38.058;2022-07-29T09:35:40;100365.59;;;25.49;43.76
71126;BME280;58785;55.566;38.058;2022-07-29T09:38:10;100378.75;;;25.52;44.45
71126;BME280;58785;55.566;38.058;2022-07-29T09:40:36;100373.19;;;25.70;44.42
71126;BME280;58785;55.566;38.058;2022-07-29T09:43:12;100381.09;;;25.84;44.41
71126;BME280;58785;55.566;38.058;2022-07-29T09:45:38;100391.88;;;26.02;44.77
71126;BME280;58785;55.566;38.058;2022-07-29T09:48:15;100385.97;;;26.22;44.55
71126;BME280;58785;55.566;38.058;2022-07-29T09:50:43;100388.47;;;26.23;44.47
71126;BME280;58785;55.566;38.058;2022-07-29T09:53:09;100387.72;;;25.99;44.57
71126;BME280;58785;55.566;38.058;2022-07-29T09:55:49;100381.97;;;25.72;43.71
71126;BME280;58785;55.566;38.058;2022-07-29T09:58:19;100376.41;;;25.56;43.67
71126;BME280;58785;55.566;38.058;2022-07-29T10:00:47;100380.53;;;25.58;43.34
71126;BME280;58785;55.566;38.058;2022-07-29T10:03:17;100380.66;;;25.40;42.76
71126;BME280;58785;55.566;38.058;2022-07-29T10:05:43;100375.31;;;25.33;43.55
71126;BME280;58785;55.566;38.058;2022-07-29T10:08:10;100368.66;;;25.52;43.68
71126;BME280;58785;55.566;38.058;2022-07-29T10:10:39;100375.63;;;25.84;43.25
71126;BME280;58785;55.566;38.058;2022-07-29T10:13:08;100378.25;;;25.90;42.59
71126;BME280;58785;55.566;38.058;2022-07-29T10:15:36;100381.59;;;25.69;42.10
71126;BME280;58785;55.566;38.058;2022-07-29T10:18:04;100364.59;;;25.55;42.03
71126;BME280;58785;55.566;38.058;2022-07-29T10:20:31;100367.81;;;25.64;42.08
71126;BME280;58785;55.566;38.058;2022-07-29T10:22:57;100379.19;;;25.84;42.09
71126;BME280;58785;55.566;38.058;2022-07-29T10:25:23;100358.59;;;26.05;42.15
71126;BME280;58785;55.566;38.058;2022-07-29T10:27:50;100368.75;;;26.21;42.60
71126;BME280;58785;55.566;38.058;2022-07-29T10:30:18;100372.06;;;26.23;42.45
71126;BME280;58785;55.566;38.058;2022-07-29T10:41:12;100370.06;;;25.55;42.63
71126;BME280;58785;55.566;38.058;2022-07-29T10:44:12;100377.09;;;25.39;43.03
71126;BME280;58785;55.566;38.058;2022-07-29T10:46:40;100372.47;;;25.28;42.74
71126;BME280;58785;55.566;38.058;2022-07-29T10:49:15;100370.94;;;25.32;43.36
71126;BME280;58785;55.566;38.058;2022-07-29T10:51:51;100379.25;;;25.49;43.52
71126;BME280;58785;55.566;38.058;2022-07-29T10:54:18;100379.81;;;25.51;43.27
71126;BME280;58785;55.566;38.058;2022-07-29T10:56:43;100379.69;;;25.69;43.26
71126;BME280;58785;55.566;38.058;2022-07-29T11:01:48;100375.66;;;25.72;43.53
71126;BME280;58785;55.566;38.058;2022-07-29T11:04:15;100372.78;;;25.90;43.89
71126;BME280;58785;55.566;38.058;2022-07-29T11:09:25;100377.47;;;26.35;42.93
71126;BME280;58785;55.566;38.058;2022-07-29T11:11:52;100371.78;;;26.36;42.90
71126;BME280;58785;55.566;38.058;2022-07-29T11:17:22;100383.44;;;26.03;42.93
71126;BME280;58785;55.566;38.058;2022-07-29T11:19:47;100378.47;;;26.00;43.16
71126;BME280;58785;55.566;38.058;2022-07-29T11:22:34;100381.81;;;25.91;42.46
71126;BME280;58785;55.566;38.058;2022-07-29T11:25:17;100369.25;;;25.78;42.40
71126;BME280;58785;55.566;38.058;2022-07-29T11:27:44;100378.13;;;25.85;42.27
71126;BME280;58785;55.566;38.058;2022-07-29T11:30:10;100377.09;;;25.74;42.41
71126;BME280;58785;55.566;38.058;2022-07-29T11:32:44;100375.53;;;25.55;42.93
71126;BME280;58785;55.566;38.058;2022-07-29T11:35:23;100381.03;;;25.32;42.60
71126;BME280;58785;55.566;38.058;2022-07-29T11:46:47;100388.19;;;24.91;43.95
71126;BME280;58785;55.566;38.058;2022-07-29T11:49:21;100381.44;;;24.93;43.61
71126;BME280;58785;55.566;38.058;2022-07-29T11:51:57;100380.19;;;25.08;43.41
71126;BME280;58785;55.566;38.058;2022-07-29T11:54:31;100377.47;;;25.08;43.43
71126;BME280;58785;55.566;38.058;2022-07-29T11:56:58;100383.63;;;25.15;43.58
71126;BME280;58785;55.566;38.058;2022-07-29T11:59:24;100378.16;;;25.15;43.72
71126;BME280;58785;55.566;38.058;2022-07-29T12:01:59;100385.66;;;25.31;43.25
71126;BME280;58785;55.566;38.058;2022-07-29T12:04:25;100387.53;;;25.54;43.57
71126;BME280;58785;55.566;38.058;2022-07-29T12:06:54;100382.66;;;25.79;43.34
71126;BME280;58785;55.566;38.058;2022-07-29T12:09:20;100382.75;;;25.96;42.57
71126;BME280;58785;55.566;38.058;2022-07-29T12:11:47;100377.97;;;26.03;42.81
71126;BME280;58785;55.566;38.058;2022-07-29T12:14:31;100390.09;;;26.07;42.27
71126;BME280;58785;55.566;38.058;2022-07-29T12:16:59;100368.00;;;25.97;42.33
71126;BME280;58785;55.566;38.058;2022-07-29T12:19:26;100375.13;;;25.98;42.20
71126;BME280;58785;55.566;38.058;2022-07-29T12:21:53;100386.06;;;25.98;42.64
71126;BME280;58785;55.566;38.058;2022-07-29T12:24:22;100379.53;;;25.99;42.03
71126;BME280;58785;55.566;38.058;2022-07-29T12:26:55;100382.75;;;25.96;41.94
71126;BME280;58785;55.566;38.058;2022-07-29T12:29:22;100369.47;;;25.88;41.99
71126;BME280;58785;55.566;38.058;2022-07-29T12:31:53;100387.31;;;25.79;41.79
71126;BME280;58785;55.566;38.058;2022-07-29T12:34:26;100371.16;;;25.66;41.81
71126;BME280;58785;55.566;38.058;2022-07-29T12:36:54;100369.63;;;25.58;42.13
71126;BME280;58785;55.566;38.058;2022-07-29T12:39:20;100374.38;;;25.51;41.76
71126;BME280;58785;55.566;38.058;2022-07-29T12:41:46;100369.84;;;25.45;42.00
71126;BME280;58785;55.566;38.058;2022-07-29T12:44:12;100374.03;;;25.47;41.93
71126;BME280;58785;55.566;38.058;2022-07-29T12:46:37;100367.34;;;25.55;42.14
71126;BME280;58785;55.566;38.058;2022-07-29T12:49:03;100363.16;;;25.64;42.37
71126;BME280;58785;55.566;38.058;2022-07-29T12:54:13;100386.56;;;25.84;41.96
71126;BME280;58785;55.566;38.058;2022-07-29T12:56:44;100380.19;;;25.78;41.89
71126;BME280;58785;55.566;38.058;2022-07-29T12:59:21;100374.84;;;25.71;42.76
71126;BME280;58785;55.566;38.058;2022-07-29T13:01:49;100383.03;;;25.71;42.56
71126;BME280;58785;55.566;38.058;2022-07-29T13:04:30;100384.09;;;25.70;42.42
71126;BME280;58785;55.566;38.058;2022-07-29T13:07:01;100371.50;;;25.69;42.73
71126;BME280;58785;55.566;38.058;2022-07-29T13:09:37;100373.50;;;25.62;42.63
71126;BME280;58785;55.566;38.058;2022-07-29T13:12:08;100370.22;;;25.48;42.38
71126;BME280;58785;55.566;38.058;2022-07-29T13:14:44;100380.31;;;25.48;43.07
71126;BME280;58785;55.566;38.058;2022-07-29T13:17:17;100379.94;;;25.44;43.14
71126;BME280;58785;55.566;38.058;2022-07-29T13:19:45;100376.28;;;25.39;42.96
71126;BME280;58785;55.566;38.058;2022-07-29T13:22:13;100382.44;;;25.34;43.17
71126;BME280;58785;55.566;38.058;2022-07-29T13:24:59;100389.56;;;25.35;44.21
71126;BME280;58785;55.566;38.058;2022-07-29T13:27:33;100374.25;;;25.34;44.23
71126;BME280;58785;55.566;38.058;2022-07-29T13:30:01;100376.78;;;25.36;44.18